createdAt,value
2022-09-12T00:02:34.846Z,0.25
2022-09-12T00:05:34.875Z,0.15
2022-09-12T00:08:34.878Z,0
2022-09-12T00:11:34.862Z,0.25
2022-09-12T00:14:34.847Z,0.5
2022-09-12T00:17:34.823Z,0.45
2022-09-12T00:20:34.845Z,0.2
2022-09-12T00:23:34.843Z,0.1
2022-09-12T00:26:34.894Z,0
2022-09-12T00:29:34.891Z,0
2022-09-12T00:32:34.817Z,0
2022-09-12T00:35:34.858Z,0
2022-09-12T00:38:34.858Z,0
2022-09-12T00:41:34.870Z,0
2022-09-12T00:44:34.905Z,0.2
2022-09-12T00:47:34.847Z,0.3
2022-09-12T00:50:34.867Z,0.3
2022-09-12T00:53:34.883Z,0.15
2022-09-12T00:56:34.911Z,0
2022-09-12T00:59:34.945Z,0.2
2022-09-12T01:02:34.897Z,0.25
2022-09-12T01:05:34.847Z,0.25
2022-09-12T01:08:34.901Z,0
2022-09-12T01:11:34.913Z,0
2022-09-12T01:14:34.885Z,0
2022-09-12T01:17:34.921Z,0
2022-09-12T01:20:34.991Z,0.1
2022-09-12T01:23:34.887Z,0
2022-09-12T01:26:34.902Z,0
2022-09-12T01:29:38.661Z,0.15
2022-09-12T01:32:34.909Z,0.2
2022-09-12T01:35:34.916Z,0.35
2022-09-12T01:38:35.002Z,0.35
2022-09-12T01:41:34.902Z,0.2
2022-09-12T01:44:34.918Z,0.15
2022-09-12T01:47:34.893Z,0
2022-09-12T01:50:34.939Z,0
2022-09-12T01:53:34.941Z,0
2022-09-12T01:56:34.912Z,0
2022-09-12T01:59:34.929Z,0
2022-09-12T02:02:34.933Z,0
2022-09-12T02:05:34.943Z,0
2022-09-12T02:08:34.968Z,0
2022-09-12T02:11:34.956Z,0
2022-09-12T02:14:34.966Z,0
2022-09-12T02:17:34.942Z,0
2022-09-12T02:20:48.709Z,0
2022-09-12T02:23:34.904Z,0
2022-09-12T02:26:34.986Z,0
2022-09-12T02:29:34.937Z,0
2022-09-12T02:32:34.977Z,0
2022-09-12T02:35:34.976Z,0
2022-09-12T02:38:35.004Z,0
2022-09-12T02:41:35.007Z,0
2022-09-12T02:44:35.018Z,0
2022-09-12T02:47:35.022Z,0
2022-09-12T02:50:35.006Z,0
2022-09-12T02:53:34.936Z,0
2022-09-12T02:56:35.012Z,0
2022-09-12T02:59:34.992Z,0
2022-09-12T03:02:35.026Z,0
2022-09-12T03:05:35.052Z,0
2022-09-12T03:08:35.052Z,0
2022-09-12T03:11:35.002Z,0
2022-09-12T03:14:35.023Z,0
2022-09-12T03:17:35.003Z,0
2022-09-12T03:20:35.018Z,0
2022-09-12T03:23:36.154Z,0
2022-09-12T03:26:35.026Z,0
2022-09-12T03:29:34.997Z,0
2022-09-12T03:32:35.024Z,0
2022-09-12T03:35:35.033Z,0
2022-09-12T03:38:35.054Z,0
2022-09-12T03:41:35.059Z,0
2022-09-12T03:44:35.043Z,0
2022-09-12T03:47:35.028Z,0
2022-09-12T03:50:35.070Z,0
2022-09-12T03:53:35.050Z,0
2022-09-12T03:56:35.029Z,0
2022-09-12T03:59:35.004Z,0
2022-09-12T04:02:35.088Z,0
2022-09-12T04:05:35.043Z,0
2022-09-12T04:08:35.199Z,0
2022-09-12T04:11:35.053Z,0.35
2022-09-12T04:14:35.063Z,0.45
2022-09-12T04:17:35.057Z,0.55
2022-09-12T04:20:35.141Z,0.45
2022-09-12T04:23:35.084Z,0.4
2022-09-12T04:26:35.078Z,0.25
2022-09-12T04:29:35.148Z,0.25
2022-09-12T04:32:35.094Z,0.3
2022-09-12T04:35:35.050Z,0.2
2022-09-12T04:38:35.164Z,0.05
2022-09-12T04:41:35.086Z,0.1
2022-09-12T04:44:35.062Z,0
2022-09-12T04:47:35.078Z,0.05
2022-09-12T04:50:35.104Z,0
2022-09-12T04:53:35.093Z,0
2022-09-12T04:56:35.101Z,0
2022-09-12T04:59:35.078Z,0
2022-09-12T05:02:35.145Z,0
2022-09-12T05:05:35.108Z,0
2022-09-12T05:08:35.131Z,0
2022-09-12T05:12:03.043Z,0
2022-09-12T05:14:41.681Z,0
2022-09-12T05:17:35.057Z,0
2022-09-12T05:20:35.077Z,0
2022-09-12T05:23:35.088Z,0
2022-09-12T05:26:35.139Z,0
2022-09-12T05:29:35.079Z,0
2022-09-12T05:32:35.122Z,0
2022-09-12T05:35:35.219Z,0
2022-09-12T05:38:35.083Z,0
2022-09-12T05:41:36.494Z,0
2022-09-12T05:44:37.209Z,0
2022-09-12T05:47:35.154Z,0.15
2022-09-12T05:50:35.132Z,0
2022-09-12T05:53:35.138Z,0
2022-09-12T05:56:35.114Z,0
2022-09-12T05:59:35.152Z,0
2022-09-12T06:02:35.160Z,0
2022-09-12T06:05:35.114Z,0
2022-09-12T06:08:35.253Z,0
2022-09-12T06:11:35.263Z,0
2022-09-12T06:14:35.110Z,0
2022-09-12T06:17:35.137Z,0.3
2022-09-12T06:20:35.157Z,0.1
2022-09-12T06:23:35.160Z,0.25
2022-09-12T06:26:35.202Z,0
2022-09-12T06:29:35.182Z,0
2022-09-12T06:32:35.179Z,0.15
2022-09-12T06:35:35.333Z,0
2022-09-12T06:38:35.190Z,0
2022-09-12T06:41:35.155Z,0
2022-09-12T06:44:35.239Z,0
2022-09-12T06:47:35.182Z,0.35
2022-09-12T06:50:35.152Z,0.45
2022-09-12T06:53:35.214Z,0.55
2022-09-12T06:56:35.193Z,0.2
2022-09-12T06:59:35.176Z,0.25
2022-09-12T07:02:35.263Z,0.25
2022-09-12T07:05:35.202Z,0.55
2022-09-12T07:08:35.286Z,0.45
2022-09-12T07:11:35.198Z,0.5
2022-09-12T07:14:35.205Z,0.3
2022-09-12T07:17:35.202Z,0.3
2022-09-12T07:20:35.217Z,0.5
2022-09-12T07:23:35.231Z,0.6
2022-09-12T07:26:35.197Z,0.4
2022-09-12T07:29:38.564Z,0.6
2022-09-12T07:32:35.204Z,0.45
2022-09-12T07:35:35.285Z,0.2
2022-09-12T07:38:35.306Z,0.2
2022-09-12T07:41:35.228Z,0.4
2022-09-12T07:44:35.251Z,0.65
2022-09-12T07:47:35.228Z,0.55
2022-09-12T07:50:35.373Z,0.2
2022-09-12T07:53:35.322Z,0.35
2022-09-12T07:56:39.813Z,0.5
2022-09-12T07:59:52.339Z,0.25
2022-09-12T08:02:35.351Z,0.65
2022-09-12T08:05:35.272Z,1.3
2022-09-12T08:08:35.285Z,1.1
2022-09-12T08:11:35.260Z,1.25
2022-09-12T08:14:35.312Z,0.65
2022-09-12T08:17:35.260Z,1.3
2022-09-12T08:20:35.282Z,1.8
2022-09-12T08:23:35.282Z,0.65
2022-09-12T08:26:35.279Z,1.6
2022-09-12T08:29:35.281Z,1.4
2022-09-12T08:32:35.241Z,1.3
2022-09-12T08:35:35.362Z,1.35
2022-09-12T08:38:35.288Z,1.1
2022-09-12T08:41:35.245Z,1.55
2022-09-12T08:44:35.319Z,1.3
2022-09-12T08:47:35.277Z,1.15
2022-09-12T08:50:35.297Z,1.25
2022-09-12T08:53:35.323Z,1.35
2022-09-12T08:56:35.283Z,0.75
2022-09-12T08:59:35.262Z,1.65
2022-09-12T09:02:35.461Z,1.35
2022-09-12T09:05:35.385Z,0.9
2022-09-12T09:08:35.335Z,1.25
2022-09-12T09:11:35.307Z,0.95
2022-09-12T09:14:35.373Z,1.55
2022-09-12T09:17:35.317Z,1.65
2022-09-12T09:20:35.280Z,0.7
2022-09-12T09:23:35.339Z,1.15
2022-09-12T09:26:36.932Z,0.8
2022-09-12T09:29:35.347Z,1.9
2022-09-12T09:32:35.319Z,1.2
2022-09-12T09:35:37.509Z,1.45
2022-09-12T09:38:35.301Z,1.4
2022-09-12T09:41:35.374Z,1.55
2022-09-12T09:44:35.334Z,1.4
2022-09-12T09:47:35.348Z,0.95
2022-09-12T09:50:35.373Z,1.1
2022-09-12T09:53:35.349Z,1.4
2022-09-12T09:56:35.398Z,1
2022-09-12T09:59:35.379Z,0.9
2022-09-12T10:02:35.466Z,1.05
2022-09-12T10:05:35.459Z,2.15
2022-09-12T10:08:35.473Z,0.8
2022-09-12T10:11:35.348Z,0.85
2022-09-12T10:14:35.390Z,0.5
2022-09-12T10:17:35.762Z,0.75
2022-09-12T10:20:35.366Z,1.15
2022-09-12T10:23:35.394Z,1.25
2022-09-12T10:26:35.388Z,0.65
2022-09-12T10:29:35.382Z,1.35
2022-09-12T10:32:35.395Z,1.45
2022-09-12T10:35:35.453Z,1.3
2022-09-12T10:38:35.449Z,0.9
2022-09-12T10:41:35.413Z,1.2
2022-09-12T10:44:35.402Z,1.7
2022-09-12T10:47:35.392Z,1.25
2022-09-12T10:50:35.384Z,1.85
2022-09-12T10:53:35.904Z,1.75
2022-09-12T10:56:35.455Z,1.65
2022-09-12T10:59:35.387Z,0.9
2022-09-12T11:02:35.550Z,1.4
2022-09-12T11:05:35.513Z,1.4
2022-09-12T11:08:35.429Z,0.95
2022-09-12T11:11:35.409Z,1.05
2022-09-12T11:14:35.418Z,1
2022-09-12T11:17:35.447Z,0.95
2022-09-12T11:20:35.444Z,1.15
2022-09-12T11:23:35.477Z,1.35
2022-09-12T11:26:35.485Z,1.05
2022-09-12T11:29:35.470Z,1.3
2022-09-12T11:32:35.414Z,1.95
2022-09-12T11:35:35.492Z,1.4
2022-09-12T11:38:35.586Z,0.75
2022-09-12T11:41:35.466Z,0.7
2022-09-12T11:44:40.219Z,1.3
2022-09-12T11:47:35.474Z,0.5
2022-09-12T11:50:35.420Z,0.5
2022-09-12T11:53:35.491Z,0.8
2022-09-12T11:56:35.463Z,1.05
2022-09-12T11:59:35.474Z,1.4
2022-09-12T12:02:35.527Z,1.25
2022-09-12T12:05:35.480Z,1.65
2022-09-12T12:08:35.529Z,1.2
2022-09-12T12:11:35.482Z,0.8
2022-09-12T12:14:35.498Z,1.05
2022-09-12T12:17:35.544Z,1.3
2022-09-12T12:20:35.444Z,1.05
2022-09-12T12:23:35.732Z,1.25
2022-09-12T12:26:35.488Z,1.15
2022-09-12T12:29:35.914Z,0.85
2022-09-12T12:32:35.435Z,0.65
2022-09-12T12:35:35.496Z,0.85
2022-09-12T12:38:35.542Z,0.8
2022-09-12T12:41:35.489Z,1.2
2022-09-12T12:44:35.533Z,1
2022-09-12T12:47:35.542Z,1.2
2022-09-12T12:50:35.520Z,1.15
2022-09-12T12:53:35.557Z,1.05
2022-09-12T12:56:35.544Z,0.55
2022-09-12T12:59:35.544Z,0.95
2022-09-12T13:02:35.604Z,1.2
2022-09-12T13:05:35.503Z,1.15
2022-09-12T13:08:35.595Z,0.7
2022-09-12T13:11:35.535Z,0.9
2022-09-12T13:14:35.578Z,1
2022-09-12T13:17:35.535Z,0.75
2022-09-12T13:20:35.572Z,1.35
2022-09-12T13:23:35.553Z,1
2022-09-12T13:26:35.643Z,0.85
2022-09-12T13:29:35.688Z,1
2022-09-12T13:32:35.555Z,1.25
2022-09-12T13:35:35.566Z,1.65
2022-09-12T13:38:35.560Z,0.8
2022-09-12T13:41:35.561Z,0.2
2022-09-12T13:44:35.563Z,0.95
2022-09-12T13:47:35.564Z,1.3
2022-09-12T13:50:35.520Z,1
2022-09-12T13:53:35.574Z,1.45
2022-09-12T13:56:35.515Z,0.95
2022-09-12T13:59:35.566Z,1.2
2022-09-12T14:02:35.674Z,1.4
2022-09-12T14:05:35.569Z,1.4
2022-09-12T14:08:35.628Z,1.2
2022-09-12T14:11:35.560Z,1.05
2022-09-12T14:14:35.600Z,1
2022-09-12T14:17:35.571Z,1.25
2022-09-12T14:20:35.618Z,1.25
2022-09-12T14:23:35.593Z,0.85
2022-09-12T14:26:35.563Z,1.2
2022-09-12T14:29:35.575Z,1.2
2022-09-12T14:32:35.649Z,1.1
2022-09-12T14:35:36.402Z,0.95
2022-09-12T14:38:35.698Z,0.85
2022-09-12T14:41:35.618Z,1.05
2022-09-12T14:44:35.636Z,1.6
2022-09-12T14:47:35.607Z,1.05
2022-09-12T14:50:35.625Z,1
2022-09-12T14:53:35.615Z,1.55
2022-09-12T14:56:35.859Z,1.8
2022-09-12T14:59:35.640Z,1.65
2022-09-12T15:02:35.618Z,0.7
2022-09-12T15:05:35.654Z,0.3
2022-09-12T15:08:35.594Z,1.5
2022-09-12T15:11:35.660Z,1.4
2022-09-12T15:14:35.671Z,0.9
2022-09-12T15:17:35.653Z,1.35
2022-09-12T15:20:35.678Z,1.55
2022-09-12T15:23:35.751Z,1.25
2022-09-12T15:26:35.679Z,1
2022-09-12T15:29:35.670Z,1.1
2022-09-12T15:32:35.668Z,0.75
2022-09-12T15:35:35.693Z,0.9
2022-09-12T15:38:35.639Z,1.2
2022-09-12T15:41:35.688Z,0.7
2022-09-12T15:44:35.674Z,0.8
2022-09-12T15:47:35.798Z,1.25
2022-09-12T15:50:35.649Z,1.35
2022-09-12T15:53:35.814Z,0.6
2022-09-12T15:56:35.690Z,0.95
2022-09-12T15:59:35.794Z,0.55
2022-09-12T16:02:35.727Z,0.6
2022-09-12T16:05:35.685Z,0.35
2022-09-12T16:08:35.702Z,0.6
2022-09-12T16:11:35.699Z,0.55
2022-09-12T16:14:35.719Z,0.2
2022-09-12T16:17:35.742Z,0.45
2022-09-12T16:20:35.669Z,0.45
2022-09-12T16:23:35.710Z,0.55
2022-09-12T16:26:35.711Z,0.7
2022-09-12T16:29:35.743Z,0.45
2022-09-12T16:32:35.678Z,0.45
2022-09-12T16:35:35.748Z,0.5
2022-09-12T16:38:35.770Z,0.45
2022-09-12T16:41:35.725Z,0.25
2022-09-12T16:44:35.764Z,0.2
2022-09-12T16:47:35.688Z,0.3
2022-09-12T16:50:35.761Z,0.45
2022-09-12T16:53:35.709Z,0.4
2022-09-12T16:56:35.779Z,0.5
2022-09-12T16:59:38.267Z,0.35
2022-09-12T17:02:35.812Z,0.25
2022-09-12T17:05:35.744Z,0.2
2022-09-12T17:08:35.832Z,0.4
2022-09-12T17:11:35.842Z,0.25
2022-09-12T17:14:35.729Z,0.25
2022-09-12T17:17:35.804Z,0.35
2022-09-12T17:20:35.767Z,0.35
2022-09-12T17:23:35.739Z,0.35
2022-09-12T17:26:35.738Z,0.35
2022-09-12T17:29:35.726Z,0.35
2022-09-12T17:32:35.790Z,0.4
2022-09-12T17:35:35.790Z,0.35
2022-09-12T17:38:35.767Z,0.35
2022-09-12T17:41:35.746Z,0.4
2022-09-12T17:44:35.778Z,0.15
2022-09-12T17:47:35.794Z,0.25
2022-09-12T17:50:40.218Z,0.45
2022-09-12T17:53:35.800Z,0.45
2022-09-12T17:56:35.799Z,0.6
2022-09-12T17:59:35.789Z,0.45
2022-09-12T18:02:35.812Z,0.85
2022-09-12T18:05:35.813Z,0.6
2022-09-12T18:08:35.820Z,0.8
2022-09-12T18:11:35.865Z,1
2022-09-12T18:14:35.878Z,0.85
2022-09-12T18:17:35.854Z,0.6
2022-09-12T18:20:35.905Z,0.5
2022-09-12T18:23:35.912Z,0.85
2022-09-12T18:26:35.937Z,0.7
2022-09-12T18:29:35.860Z,0.5
2022-09-12T18:32:35.879Z,0.4
2022-09-12T18:35:35.873Z,0.2
2022-09-12T18:38:35.829Z,0.45
2022-09-12T18:41:35.895Z,0.65
2022-09-12T18:44:36.005Z,0.6
2022-09-12T18:47:35.992Z,0.65
2022-09-12T18:50:36.119Z,0.8
2022-09-12T18:53:36.014Z,0.4
2022-09-12T18:56:36.044Z,0.85
2022-09-12T18:59:35.998Z,0.45
2022-09-12T19:02:35.889Z,0.55
2022-09-12T19:05:35.893Z,1.05
2022-09-12T19:08:35.820Z,0.6
2022-09-12T19:11:35.976Z,0.65
2022-09-12T19:14:35.865Z,0.85
2022-09-12T19:17:35.905Z,0.35
2022-09-12T19:20:35.887Z,0.5
2022-09-12T19:23:35.886Z,0.6
2022-09-12T19:26:35.881Z,0.65
2022-09-12T19:29:35.919Z,0.6
2022-09-12T19:32:35.866Z,0.35
2022-09-12T19:35:35.909Z,0.45
2022-09-12T19:38:35.892Z,0.6
2022-09-12T19:41:35.906Z,0.6
2022-09-12T19:44:35.910Z,0.9
2022-09-12T19:47:35.899Z,0.5
2022-09-12T19:50:35.945Z,0.65
2022-09-12T19:53:35.863Z,0.75
2022-09-12T19:56:35.921Z,0.55
2022-09-12T19:59:35.909Z,0.9
2022-09-12T20:02:36.011Z,0.75
2022-09-12T20:05:42.594Z,0.8
2022-09-12T20:08:35.902Z,0.4
2022-09-12T20:11:35.875Z,0.55
2022-09-12T20:14:35.910Z,0.55
2022-09-12T20:17:35.936Z,0.65
2022-09-12T20:20:35.931Z,1.05
2022-09-12T20:23:35.924Z,0.3
2022-09-12T20:26:35.909Z,0.5
2022-09-12T20:29:35.914Z,0.4
2022-09-12T20:32:35.938Z,0.5
2022-09-12T20:35:35.906Z,0.6
2022-09-12T20:38:36.005Z,0.8
2022-09-12T20:41:35.962Z,0.85
2022-09-12T20:44:35.943Z,0.85
2022-09-12T20:47:35.978Z,0.55
2022-09-12T20:50:35.965Z,0.6
2022-09-12T20:53:36.508Z,0.3
2022-09-12T20:56:35.991Z,0.45
2022-09-12T20:59:35.909Z,0.45
2022-09-12T21:02:36.189Z,1.6
2022-09-12T21:05:35.918Z,0.8
2022-09-12T21:08:35.970Z,1.05
2022-09-12T21:11:35.896Z,0.45
2022-09-12T21:14:35.956Z,0.25
2022-09-12T21:17:35.926Z,0.65
2022-09-12T21:20:35.999Z,0.5
2022-09-12T21:23:35.976Z,0.4
2022-09-12T21:26:35.975Z,0.6
2022-09-12T21:29:35.950Z,0.55
2022-09-12T21:32:36.013Z,1
2022-09-12T21:35:36.010Z,0.85
2022-09-12T21:38:36.025Z,1.3
2022-09-12T21:41:35.965Z,0.9
2022-09-12T21:44:35.989Z,0.9
2022-09-12T21:47:35.937Z,1.45
2022-09-12T21:50:35.989Z,1.7
2022-09-12T21:53:35.987Z,1.45
2022-09-12T21:56:35.975Z,1.35
2022-09-12T21:59:36.074Z,1.7
2022-09-12T22:02:36.001Z,0.75
2022-09-12T22:05:35.997Z,1.05
2022-09-12T22:08:35.991Z,1.9
2022-09-12T22:11:36.031Z,2.05
2022-09-12T22:14:35.970Z,1.95
2022-09-12T22:17:36.005Z,1.35
2022-09-12T22:20:36.000Z,1.45
2022-09-12T22:23:36.059Z,1.2
2022-09-12T22:26:36.006Z,1.8
2022-09-12T22:29:36.017Z,1.75
2022-09-12T22:32:35.967Z,1.35
2022-09-12T22:35:36.036Z,2.1
2022-09-12T22:38:36.038Z,2.1
2022-09-12T22:41:36.035Z,1.85
2022-09-12T22:44:36.041Z,1.3
2022-09-12T22:47:36.003Z,2.05
2022-09-12T22:50:36.023Z,1.05
2022-09-12T22:53:36.051Z,1.65
2022-09-12T22:56:36.081Z,2.1
2022-09-12T22:59:36.070Z,2.05
2022-09-12T23:02:36.026Z,1.4
2022-09-12T23:05:36.126Z,1.55
2022-09-12T23:08:36.052Z,1.45
2022-09-12T23:11:36.029Z,1.85
2022-09-12T23:14:36.075Z,1.75
2022-09-12T23:17:36.085Z,2.15
2022-09-12T23:20:36.006Z,2.35
2022-09-12T23:23:36.076Z,1.9
2022-09-12T23:26:36.109Z,1.55
2022-09-12T23:29:36.184Z,1.95
2022-09-12T23:32:36.066Z,1.8
2022-09-12T23:35:36.056Z,2.3
2022-09-12T23:38:36.090Z,1.85
2022-09-12T23:41:36.041Z,2.15
2022-09-12T23:44:36.067Z,2.4
2022-09-12T23:47:36.069Z,2
2022-09-12T23:50:36.056Z,1.65
2022-09-12T23:53:36.090Z,1.7
2022-09-12T23:56:36.082Z,1.5
2022-09-12T23:59:36.086Z,1.9
